sensor_id;sensor_type;location;lat;lon;timestamp;P1;durP1;ratioP1;P2;durP2;ratioP2
48006;SDS011;33771;48.180;11.400;2024-02-21T00:00:45;14.03;;;2.40;;
48006;SDS011;33771;48.180;11.400;2024-02-21T00:03:11;6.10;;;2.47;;
48006;SDS011;33771;48.180;11.400;2024-02-21T00:05:37;9.20;;;2.50;;
48006;SDS011;33771;48.180;11.400;2024-02-21T00:08:02;7.40;;;2.43;;
48006;SDS011;33771;48.180;11.400;2024-02-21T00:10:28;9.97;;;2.70;;
48006;SDS011;33771;48.180;11.400;2024-02-21T00:12:54;7.00;;;2.90;;
48006;SDS011;33771;48.180;11.400;2024-02-21T00:15:19;9.73;;;2.73;;
48006;SDS011;33771;48.180;11.400;2024-02-21T00:17:46;11.03;;;3.50;;
48006;SDS011;33771;48.180;11.400;2024-02-21T00:20:12;7.10;;;2.33;;
48006;SDS011;33771;48.180;11.400;2024-02-21T00:22:37;10.77;;;2.60;;
48006;SDS011;33771;48.180;11.400;2024-02-21T00:25:03;6.67;;;2.50;;
48006;SDS011;33771;48.180;11.400;2024-02-21T00:27:29;8.50;;;2.40;;
48006;SDS011;33771;48.180;11.400;2024-02-21T00:29:56;10.43;;;3.30;;
48006;SDS011;33771;48.180;11.400;2024-02-21T00:32:21;6.80;;;2.40;;
48006;SDS011;33771;48.180;11.400;2024-02-21T00:34:47;12.20;;;2.80;;
48006;SDS011;33771;48.180;11.400;2024-02-21T00:37:12;8.47;;;2.43;;
48006;SDS011;33771;48.180;11.400;2024-02-21T00:39:38;8.13;;;2.20;;
48006;SDS011;33771;48.180;11.400;2024-02-21T00:42:03;6.27;;;2.33;;
48006;SDS011;33771;48.180;11.400;2024-02-21T00:44:29;10.97;;;2.70;;
48006;SDS011;33771;48.180;11.400;2024-02-21T00:46:55;9.30;;;2.53;;
48006;SDS011;33771;48.180;11.400;2024-02-21T00:49:20;8.07;;;2.47;;
48006;SDS011;33771;48.180;11.400;2024-02-21T00:51:46;7.47;;;2.17;;
48006;SDS011;33771;48.180;11.400;2024-02-21T00:54:12;7.57;;;2.77;;
48006;SDS011;33771;48.180;11.400;2024-02-21T00:56:38;6.07;;;2.20;;
48006;SDS011;33771;48.180;11.400;2024-02-21T00:59:03;8.97;;;2.83;;
48006;SDS011;33771;48.180;11.400;2024-02-21T01:01:29;6.50;;;2.40;;
48006;SDS011;33771;48.180;11.400;2024-02-21T01:03:54;10.77;;;3.13;;
48006;SDS011;33771;48.180;11.400;2024-02-21T01:06:20;7.73;;;3.10;;
48006;SDS011;33771;48.180;11.400;2024-02-21T01:08:46;8.80;;;2.90;;
48006;SDS011;33771;48.180;11.400;2024-02-21T01:11:17;7.67;;;2.60;;
48006;SDS011;33771;48.180;11.400;2024-02-21T01:13:43;7.57;;;2.40;;
48006;SDS011;33771;48.180;11.400;2024-02-21T01:16:09;6.23;;;3.07;;
48006;SDS011;33771;48.180;11.400;2024-02-21T01:18:37;5.63;;;1.97;;
48006;SDS011;33771;48.180;11.400;2024-02-21T01:21:03;6.40;;;2.20;;
48006;SDS011;33771;48.180;11.400;2024-02-21T01:23:32;7.60;;;2.40;;
48006;SDS011;33771;48.180;11.400;2024-02-21T01:26:01;9.77;;;2.80;;
48006;SDS011;33771;48.180;11.400;2024-02-21T01:28:27;6.70;;;2.40;;
48006;SDS011;33771;48.180;11.400;2024-02-21T01:30:52;6.63;;;2.13;;
48006;SDS011;33771;48.180;11.400;2024-02-21T01:33:18;8.97;;;2.40;;
48006;SDS011;33771;48.180;11.400;2024-02-21T01:35:44;7.63;;;2.43;;
48006;SDS011;33771;48.180;11.400;2024-02-21T01:38:09;7.70;;;2.30;;
48006;SDS011;33771;48.180;11.400;2024-02-21T01:40:35;7.37;;;2.60;;
48006;SDS011;33771;48.180;11.400;2024-02-21T01:43:02;5.87;;;2.10;;
48006;SDS011;33771;48.180;11.400;2024-02-21T01:45:28;8.33;;;2.30;;
48006;SDS011;33771;48.180;11.400;2024-02-21T01:47:53;4.67;;;2.00;;
48006;SDS011;33771;48.180;11.400;2024-02-21T01:50:19;7.13;;;2.23;;
48006;SDS011;33771;48.180;11.400;2024-02-21T01:52:47;7.27;;;3.03;;
48006;SDS011;33771;48.180;11.400;2024-02-21T01:55:15;5.43;;;2.33;;
48006;SDS011;33771;48.180;11.400;2024-02-21T01:57:42;6.63;;;2.23;;
48006;SDS011;33771;48.180;11.400;2024-02-21T02:00:10;6.23;;;2.07;;
48006;SDS011;33771;48.180;11.400;2024-02-21T02:02:38;7.20;;;2.60;;
48006;SDS011;33771;48.180;11.400;2024-02-21T02:05:04;10.37;;;3.00;;
48006;SDS011;33771;48.180;11.400;2024-02-21T02:07:31;8.23;;;2.70;;
48006;SDS011;33771;48.180;11.400;2024-02-21T02:09:57;7.33;;;1.97;;
48006;SDS011;33771;48.180;11.400;2024-02-21T02:12:22;6.80;;;1.97;;
48006;SDS011;33771;48.180;11.400;2024-02-21T02:14:57;7.57;;;2.47;;
48006;SDS011;33771;48.180;11.400;2024-02-21T02:17:23;6.57;;;2.10;;
48006;SDS011;33771;48.180;11.400;2024-02-21T02:19:49;4.23;;;2.10;;
48006;SDS011;33771;48.180;11.400;2024-02-21T02:22:16;5.30;;;2.10;;
48006;SDS011;33771;48.180;11.400;2024-02-21T02:24:47;6.23;;;2.30;;
48006;SDS011;33771;48.180;11.400;2024-02-21T02:27:12;11.30;;;2.77;;
48006;SDS011;33771;48.180;11.400;2024-02-21T02:29:38;7.47;;;2.47;;
48006;SDS011;33771;48.180;11.400;2024-02-21T02:32:03;4.77;;;1.73;;
48006;SDS011;33771;48.180;11.400;2024-02-21T02:34:29;5.20;;;1.70;;
48006;SDS011;33771;48.180;11.400;2024-02-21T02:36:55;5.03;;;2.27;;
48006;SDS011;33771;48.180;11.400;2024-02-21T02:39:21;7.43;;;1.70;;
48006;SDS011;33771;48.180;11.400;2024-02-21T02:41:46;5.60;;;1.90;;
48006;SDS011;33771;48.180;11.400;2024-02-21T02:44:12;4.53;;;1.90;;
48006;SDS011;33771;48.180;11.400;2024-02-21T02:46:40;4.97;;;1.90;;
48006;SDS011;33771;48.180;11.400;2024-02-21T02:49:06;8.87;;;2.10;;
48006;SDS011;33771;48.180;11.400;2024-02-21T02:51:31;6.17;;;2.20;;
48006;SDS011;33771;48.180;11.400;2024-02-21T02:53:57;5.33;;;1.80;;
48006;SDS011;33771;48.180;11.400;2024-02-21T02:56:23;5.30;;;1.90;;
48006;SDS011;33771;48.180;11.400;2024-02-21T02:58:51;6.33;;;1.80;;
48006;SDS011;33771;48.180;11.400;2024-02-21T03:01:16;4.87;;;1.63;;
48006;SDS011;33771;48.180;11.400;2024-02-21T03:03:42;5.43;;;1.90;;
48006;SDS011;33771;48.180;11.400;2024-02-21T03:06:07;7.70;;;2.43;;
48006;SDS011;33771;48.180;11.400;2024-02-21T03:08:33;5.83;;;2.00;;
48006;SDS011;33771;48.180;11.400;2024-02-21T03:10:59;5.93;;;1.90;;
48006;SDS011;33771;48.180;11.400;2024-02-21T03:13:25;7.17;;;1.70;;
48006;SDS011;33771;48.180;11.400;2024-02-21T03:15:51;7.77;;;1.93;;
48006;SDS011;33771;48.180;11.400;2024-02-21T03:18:16;5.30;;;1.60;;
48006;SDS011;33771;48.180;11.400;2024-02-21T03:20:42;7.37;;;2.00;;
48006;SDS011;33771;48.180;11.400;2024-02-21T03:23:07;3.83;;;1.73;;
48006;SDS011;33771;48.180;11.400;2024-02-21T03:25:33;12.97;;;2.33;;
48006;SDS011;33771;48.180;11.400;2024-02-21T03:27:58;5.57;;;2.13;;
48006;SDS011;33771;48.180;11.400;2024-02-21T03:30:24;7.27;;;2.00;;
48006;SDS011;33771;48.180;11.400;2024-02-21T03:32:49;8.13;;;1.90;;
48006;SDS011;33771;48.180;11.400;2024-02-21T03:35:16;4.33;;;1.80;;
48006;SDS011;33771;48.180;11.400;2024-02-21T03:37:41;8.17;;;2.37;;
48006;SDS011;33771;48.180;11.400;2024-02-21T03:40:10;5.80;;;2.00;;
48006;SDS011;33771;48.180;11.400;2024-02-21T03:42:36;6.80;;;1.90;;
48006;SDS011;33771;48.180;11.400;2024-02-21T03:45:02;4.17;;;1.80;;
48006;SDS011;33771;48.180;11.400;2024-02-21T03:47:28;4.27;;;1.63;;
48006;SDS011;33771;48.180;11.400;2024-02-21T03:49:54;7.33;;;2.20;;
48006;SDS011;33771;48.180;11.400;2024-02-21T03:52:20;7.07;;;1.67;;
48006;SDS011;33771;48.180;11.400;2024-02-21T03:54:45;5.10;;;1.70;;
48006;SDS011;33771;48.180;11.400;2024-02-21T03:57:11;4.20;;;1.87;;
48006;SDS011;33771;48.180;11.400;2024-02-21T03:59:36;5.73;;;1.83;;
48006;SDS011;33771;48.180;11.400;2024-02-21T04:02:05;6.03;;;1.60;;
48006;SDS011;33771;48.180;11.400;2024-02-21T04:04:33;5.87;;;1.67;;
48006;SDS011;33771;48.180;11.400;2024-02-21T04:06:59;5.93;;;1.70;;
48006;SDS011;33771;48.180;11.400;2024-02-21T04:09:25;5.50;;;1.63;;
48006;SDS011;33771;48.180;11.400;2024-02-21T04:11:50;4.50;;;1.77;;
48006;SDS011;33771;48.180;11.400;2024-02-21T04:14:16;4.23;;;1.67;;
48006;SDS011;33771;48.180;11.400;2024-02-21T04:16:42;4.30;;;1.80;;
48006;SDS011;33771;48.180;11.400;2024-02-21T04:19:07;5.03;;;1.63;;
48006;SDS011;33771;48.180;11.400;2024-02-21T04:21:33;4.40;;;1.60;;
48006;SDS011;33771;48.180;11.400;2024-02-21T04:23:59;4.07;;;2.10;;
48006;SDS011;33771;48.180;11.400;2024-02-21T04:26:25;5.00;;;1.53;;
48006;SDS011;33771;48.180;11.400;2024-02-21T04:28:50;5.23;;;1.70;;
48006;SDS011;33771;48.180;11.400;2024-02-21T04:31:16;5.57;;;2.13;;
48006;SDS011;33771;48.180;11.400;2024-02-21T04:33:41;7.47;;;2.00;;
48006;SDS011;33771;48.180;11.400;2024-02-21T04:36:07;3.57;;;1.70;;
48006;SDS011;33771;48.180;11.400;2024-02-21T04:38:32;4.63;;;1.80;;
48006;SDS011;33771;48.180;11.400;2024-02-21T04:40:58;4.67;;;1.70;;
48006;SDS011;33771;48.180;11.400;2024-02-21T04:43:24;9.83;;;2.80;;
48006;SDS011;33771;48.180;11.400;2024-02-21T04:45:50;4.87;;;1.77;;
48006;SDS011;33771;48.180;11.400;2024-02-21T04:48:16;5.50;;;1.63;;
48006;SDS011;33771;48.180;11.400;2024-02-21T04:50:41;5.30;;;1.83;;
48006;SDS011;33771;48.180;11.400;2024-02-21T04:53:07;5.73;;;1.80;;
48006;SDS011;33771;48.180;11.400;2024-02-21T04:55:32;6.53;;;2.10;;
48006;SDS011;33771;48.180;11.400;2024-02-21T04:57:58;2.97;;;1.33;;
48006;SDS011;33771;48.180;11.400;2024-02-21T05:00:24;3.43;;;1.43;;
48006;SDS011;33771;48.180;11.400;2024-02-21T05:02:49;3.37;;;1.57;;
48006;SDS011;33771;48.180;11.400;2024-02-21T05:05:15;3.30;;;1.37;;
48006;SDS011;33771;48.180;11.400;2024-02-21T05:07:41;6.37;;;1.90;;
48006;SDS011;33771;48.180;11.400;2024-02-21T05:10:07;4.30;;;1.50;;
48006;SDS011;33771;48.180;11.400;2024-02-21T05:12:33;8.73;;;1.73;;
48006;SDS011;33771;48.180;11.400;2024-02-21T05:14:59;4.40;;;1.60;;
48006;SDS011;33771;48.180;11.400;2024-02-21T05:17:24;3.03;;;1.30;;
48006;SDS011;33771;48.180;11.400;2024-02-21T05:19:50;4.83;;;1.90;;
48006;SDS011;33771;48.180;11.400;2024-02-21T05:22:15;3.67;;;1.53;;
48006;SDS011;33771;48.180;11.400;2024-02-21T05:24:41;5.43;;;1.40;;
48006;SDS011;33771;48.180;11.400;2024-02-21T05:27:06;5.83;;;1.57;;
48006;SDS011;33771;48.180;11.400;2024-02-21T05:29:32;4.60;;;1.43;;
48006;SDS011;33771;48.180;11.400;2024-02-21T05:31:58;5.53;;;1.30;;
48006;SDS011;33771;48.180;11.400;2024-02-21T05:34:24;7.57;;;1.90;;
48006;SDS011;33771;48.180;11.400;2024-02-21T05:36:50;3.60;;;1.70;;
48006;SDS011;33771;48.180;11.400;2024-02-21T05:39:17;4.80;;;1.43;;
48006;SDS011;33771;48.180;11.400;2024-02-21T05:41:43;5.23;;;1.50;;
48006;SDS011;33771;48.180;11.400;2024-02-21T05:44:08;7.17;;;1.60;;
48006;SDS011;33771;48.180;11.400;2024-02-21T05:46:35;4.17;;;1.60;;
48006;SDS011;33771;48.180;11.400;2024-02-21T05:49:00;6.57;;;1.53;;
48006;SDS011;33771;48.180;11.400;2024-02-21T05:51:26;5.07;;;2.00;;
48006;SDS011;33771;48.180;11.400;2024-02-21T05:53:52;4.97;;;2.07;;
48006;SDS011;33771;48.180;11.400;2024-02-21T05:56:17;6.57;;;2.40;;
48006;SDS011;33771;48.180;11.400;2024-02-21T05:58:44;6.10;;;2.10;;
48006;SDS011;33771;48.180;11.400;2024-02-21T06:01:10;4.03;;;1.60;;
48006;SDS011;33771;48.180;11.400;2024-02-21T06:03:35;4.70;;;1.70;;
48006;SDS011;33771;48.180;11.400;2024-02-21T06:06:01;7.03;;;1.60;;
48006;SDS011;33771;48.180;11.400;2024-02-21T06:08:27;4.37;;;1.60;;
48006;SDS011;33771;48.180;11.400;2024-02-21T06:10:52;3.17;;;1.53;;
48006;SDS011;33771;48.180;11.400;2024-02-21T06:13:23;4.57;;;1.60;;
48006;SDS011;33771;48.180;11.400;2024-02-21T06:15:49;4.43;;;1.50;;
48006;SDS011;33771;48.180;11.400;2024-02-21T06:18:15;4.57;;;1.67;;
48006;SDS011;33771;48.180;11.400;2024-02-21T06:20:44;3.47;;;1.57;;
48006;SDS011;33771;48.180;11.400;2024-02-21T06:23:11;5.77;;;1.67;;
48006;SDS011;33771;48.180;11.400;2024-02-21T06:25:41;8.83;;;1.80;;
48006;SDS011;33771;48.180;11.400;2024-02-21T06:28:06;1.77;;;1.23;;
48006;SDS011;33771;48.180;11.400;2024-02-21T06:30:32;3.93;;;1.70;;
48006;SDS011;33771;48.180;11.400;2024-02-21T06:32:57;6.27;;;1.53;;
48006;SDS011;33771;48.180;11.400;2024-02-21T06:35:24;9.37;;;1.83;;
48006;SDS011;33771;48.180;11.400;2024-02-21T06:37:50;3.30;;;1.40;;
48006;SDS011;33771;48.180;11.400;2024-02-21T06:40:20;6.83;;;2.00;;
48006;SDS011;33771;48.180;11.400;2024-02-21T06:42:47;5.57;;;1.60;;
48006;SDS011;33771;48.180;11.400;2024-02-21T06:45:12;4.50;;;1.40;;
48006;SDS011;33771;48.180;11.400;2024-02-21T06:47:38;4.80;;;1.30;;
48006;SDS011;33771;48.180;11.400;2024-02-21T06:50:03;5.00;;;1.53;;
48006;SDS011;33771;48.180;11.400;2024-02-21T06:52:29;6.17;;;1.50;;
48006;SDS011;33771;48.180;11.400;2024-02-21T06:54:56;3.90;;;1.40;;
48006;SDS011;33771;48.180;11.400;2024-02-21T06:57:22;5.70;;;1.60;;
48006;SDS011;33771;48.180;11.400;2024-02-21T06:59:47;3.93;;;1.30;;
48006;SDS011;33771;48.180;11.400;2024-02-21T07:02:13;5.07;;;1.40;;
48006;SDS011;33771;48.180;11.400;2024-02-21T07:04:38;9.37;;;1.57;;
48006;SDS011;33771;48.180;11.400;2024-02-21T07:07:04;7.37;;;1.63;;
48006;SDS011;33771;48.180;11.400;2024-02-21T07:09:29;4.90;;;1.13;;
48006;SDS011;33771;48.180;11.400;2024-02-21T07:11:57;3.83;;;1.10;;
48006;SDS011;33771;48.180;11.400;2024-02-21T07:14:25;4.90;;;1.30;;
48006;SDS011;33771;48.180;11.400;2024-02-21T07:16:53;5.93;;;1.37;;
48006;SDS011;33771;48.180;11.400;2024-02-21T07:19:19;7.93;;;1.80;;
48006;SDS011;33771;48.180;11.400;2024-02-21T07:21:44;4.40;;;1.53;;
48006;SDS011;33771;48.180;11.400;2024-02-21T07:24:11;6.43;;;1.40;;
48006;SDS011;33771;48.180;11.400;2024-02-21T07:26:37;5.63;;;1.13;;
48006;SDS011;33771;48.180;11.400;2024-02-21T07:29:05;3.47;;;1.40;;
48006;SDS011;33771;48.180;11.400;2024-02-21T07:31:31;6.13;;;1.40;;
48006;SDS011;33771;48.180;11.400;2024-02-21T07:34:03;8.13;;;1.37;;
48006;SDS011;33771;48.180;11.400;2024-02-21T07:36:28;5.27;;;1.10;;
48006;SDS011;33771;48.180;11.400;2024-02-21T07:38:55;2.53;;;1.40;;
48006;SDS011;33771;48.180;11.400;2024-02-21T07:41:21;8.23;;;1.30;;
48006;SDS011;33771;48.180;11.400;2024-02-21T07:43:46;2.77;;;1.20;;
48006;SDS011;33771;48.180;11.400;2024-02-21T07:46:13;3.13;;;1.30;;
48006;SDS011;33771;48.180;11.400;2024-02-21T07:48:39;2.77;;;1.20;;
48006;SDS011;33771;48.180;11.400;2024-02-21T07:51:05;4.90;;;1.33;;
48006;SDS011;33771;48.180;11.400;2024-02-21T07:53:30;2.13;;;1.23;;
48006;SDS011;33771;48.180;11.400;2024-02-21T07:55:56;1.77;;;0.83;;
48006;SDS011;33771;48.180;11.400;2024-02-21T07:58:21;1.87;;;0.90;;
48006;SDS011;33771;48.180;11.400;2024-02-21T08:00:47;3.67;;;1.00;;
48006;SDS011;33771;48.180;11.400;2024-02-21T08:03:13;2.83;;;1.10;;
48006;SDS011;33771;48.180;11.400;2024-02-21T08:05:40;2.17;;;1.10;;
48006;SDS011;33771;48.180;11.400;2024-02-21T08:08:06;3.03;;;1.37;;
48006;SDS011;33771;48.180;11.400;2024-02-21T08:10:33;3.03;;;1.10;;
48006;SDS011;33771;48.180;11.400;2024-02-21T08:12:58;7.53;;;2.37;;
48006;SDS011;33771;48.180;11.400;2024-02-21T08:15:24;1.87;;;1.17;;
48006;SDS011;33771;48.180;11.400;2024-02-21T08:17:53;2.13;;;1.20;;
48006;SDS011;33771;48.180;11.400;2024-02-21T08:20:23;2.23;;;1.13;;
48006;SDS011;33771;48.180;11.400;2024-02-21T08:22:49;7.53;;;1.23;;
48006;SDS011;33771;48.180;11.400;2024-02-21T08:25:14;2.20;;;1.10;;
48006;SDS011;33771;48.180;11.400;2024-02-21T08:27:40;3.67;;;0.90;;
48006;SDS011;33771;48.180;11.400;2024-02-21T08:30:06;1.30;;;1.00;;
48006;SDS011;33771;48.180;11.400;2024-02-21T08:32:32;3.57;;;1.07;;
48006;SDS011;33771;48.180;11.400;2024-02-21T08:35:00;7.43;;;1.30;;
48006;SDS011;33771;48.180;11.400;2024-02-21T08:37:29;3.60;;;1.30;;
48006;SDS011;33771;48.180;11.400;2024-02-21T08:39:55;3.43;;;1.43;;
48006;SDS011;33771;48.180;11.400;2024-02-21T08:42:20;4.83;;;1.23;;
48006;SDS011;33771;48.180;11.400;2024-02-21T08:44:46;1.97;;;1.03;;
48006;SDS011;33771;48.180;11.400;2024-02-21T08:47:11;2.03;;;1.10;;
48006;SDS011;33771;48.180;11.400;2024-02-21T08:49:37;1.37;;;0.90;;
48006;SDS011;33771;48.180;11.400;2024-02-21T08:52:03;3.70;;;1.20;;
48006;SDS011;33771;48.180;11.400;2024-02-21T08:54:30;2.60;;;1.00;;
48006;SDS011;33771;48.180;11.400;2024-02-21T08:56:56;3.97;;;1.10;;
48006;SDS011;33771;48.180;11.400;2024-02-21T08:59:21;1.00;;;0.73;;
48006;SDS011;33771;48.180;11.400;2024-02-21T09:01:47;2.80;;;0.90;;
48006;SDS011;33771;48.180;11.400;2024-02-21T09:04:12;1.20;;;0.87;;
48006;SDS011;33771;48.180;11.400;2024-02-21T09:06:38;2.10;;;1.00;;
48006;SDS011;33771;48.180;11.400;2024-02-21T09:09:06;3.93;;;1.20;;
48006;SDS011;33771;48.180;11.400;2024-02-21T09:11:33;2.20;;;1.03;;
48006;SDS011;33771;48.180;11.400;2024-02-21T09:13:59;2.93;;;0.90;;
48006;SDS011;33771;48.180;11.400;2024-02-21T09:16:24;2.10;;;0.80;;
48006;SDS011;33771;48.180;11.400;2024-02-21T09:18:50;2.03;;;0.97;;
48006;SDS011;33771;48.180;11.400;2024-02-21T09:21:15;1.77;;;0.90;;
48006;SDS011;33771;48.180;11.400;2024-02-21T09:23:41;2.00;;;1.00;;
48006;SDS011;33771;48.180;11.400;2024-02-21T09:26:06;3.23;;;1.10;;
48006;SDS011;33771;48.180;11.400;2024-02-21T09:28:35;3.07;;;1.00;;
48006;SDS011;33771;48.180;11.400;2024-02-21T09:31:00;2.20;;;1.00;;
48006;SDS011;33771;48.180;11.400;2024-02-21T09:33:27;4.00;;;1.00;;
48006;SDS011;33771;48.180;11.400;2024-02-21T09:35:52;1.40;;;1.10;;
48006;SDS011;33771;48.180;11.400;2024-02-21T09:38:18;2.03;;;1.00;;
48006;SDS011;33771;48.180;11.400;2024-02-21T09:40:43;2.87;;;1.50;;
48006;SDS011;33771;48.180;11.400;2024-02-21T09:43:09;2.87;;;1.57;;
48006;SDS011;33771;48.180;11.400;2024-02-21T09:45:34;6.40;;;2.00;;
48006;SDS011;33771;48.180;11.400;2024-02-21T09:50:47;3.47;;;1.67;;
48006;SDS011;33771;48.180;11.400;2024-02-21T09:53:15;6.30;;;2.10;;
48006;SDS011;33771;48.180;11.400;2024-02-21T09:55:41;7.73;;;2.03;;
48006;SDS011;33771;48.180;11.400;2024-02-21T09:58:08;2.73;;;1.73;;
48006;SDS011;33771;48.180;11.400;2024-02-21T10:00:35;3.73;;;1.97;;
48006;SDS011;33771;48.180;11.400;2024-02-21T10:03:01;2.60;;;1.20;;
48006;SDS011;33771;48.180;11.400;2024-02-21T10:05:37;3.00;;;1.50;;
48006;SDS011;33771;48.180;11.400;2024-02-21T10:08:04;4.30;;;1.80;;
48006;SDS011;33771;48.180;11.400;2024-02-21T10:10:39;3.67;;;1.80;;
48006;SDS011;33771;48.180;11.400;2024-02-21T10:13:06;3.93;;;1.50;;
48006;SDS011;33771;48.180;11.400;2024-02-21T10:15:32;5.90;;;1.60;;
48006;SDS011;33771;48.180;11.400;2024-02-21T10:17:59;5.87;;;1.80;;
48006;SDS011;33771;48.180;11.400;2024-02-21T10:20:25;4.80;;;1.50;;
48006;SDS011;33771;48.180;11.400;2024-02-21T10:23:04;8.90;;;1.23;;
48006;SDS011;33771;48.180;11.400;2024-02-21T10:25:34;1.90;;;0.90;;
48006;SDS011;33771;48.180;11.400;2024-02-21T10:28:01;1.70;;;1.00;;
48006;SDS011;33771;48.180;11.400;2024-02-21T10:30:28;2.07;;;1.00;;
48006;SDS011;33771;48.180;11.400;2024-02-21T10:32:54;3.08;;;1.00;;
48006;SDS011;33771;48.180;11.400;2024-02-21T10:35:26;1.58;;;0.80;;
48006;SDS011;33771;48.180;11.400;2024-02-21T10:37:56;1.73;;;0.80;;
48006;SDS011;33771;48.180;11.400;2024-02-21T10:40:23;1.90;;;0.90;;
48006;SDS011;33771;48.180;11.400;2024-02-21T10:42:50;4.90;;;0.80;;
48006;SDS011;33771;48.180;11.400;2024-02-21T10:45:29;1.45;;;0.70;;
48006;SDS011;33771;48.180;11.400;2024-02-21T10:48:00;2.53;;;0.80;;
48006;SDS011;33771;48.180;11.400;2024-02-21T10:50:32;3.58;;;0.82;;
48006;SDS011;33771;48.180;11.400;2024-02-21T10:56:25;1.90;;;0.70;;
48006;SDS011;33771;48.180;11.400;2024-02-21T10:58:54;2.55;;;0.70;;
48006;SDS011;33771;48.180;11.400;2024-02-21T11:01:23;2.63;;;0.80;;
48006;SDS011;33771;48.180;11.400;2024-02-21T11:03:49;1.20;;;0.70;;
48006;SDS011;33771;48.180;11.400;2024-02-21T11:06:18;1.48;;;0.70;;
48006;SDS011;33771;48.180;11.400;2024-02-21T11:08:45;0.95;;;0.80;;
48006;SDS011;33771;48.180;11.400;2024-02-21T11:11:12;3.35;;;0.80;;
48006;SDS011;33771;48.180;11.400;2024-02-21T11:13:43;1.13;;;0.57;;
48006;SDS011;33771;48.180;11.400;2024-02-21T11:16:11;3.67;;;0.90;;
48006;SDS011;33771;48.180;11.400;2024-02-21T11:18:46;1.25;;;0.70;;
48006;SDS011;33771;48.180;11.400;2024-02-21T11:21:12;2.53;;;0.80;;
48006;SDS011;33771;48.180;11.400;2024-02-21T11:23:37;6.22;;;0.70;;
48006;SDS011;33771;48.180;11.400;2024-02-21T11:26:06;3.65;;;0.77;;
48006;SDS011;33771;48.180;11.400;2024-02-21T11:28:33;1.92;;;0.82;;
48006;SDS011;33771;48.180;11.400;2024-02-21T11:31:11;1.33;;;0.80;;
48006;SDS011;33771;48.180;11.400;2024-02-21T11:33:40;1.40;;;0.70;;
48006;SDS011;33771;48.180;11.400;2024-02-21T11:36:07;1.33;;;0.70;;
48006;SDS011;33771;48.180;11.400;2024-02-21T11:38:33;4.35;;;0.80;;
48006;SDS011;33771;48.180;11.400;2024-02-21T11:40:59;1.45;;;0.80;;
48006;SDS011;33771;48.180;11.400;2024-02-21T11:43:25;6.75;;;0.70;;
48006;SDS011;33771;48.180;11.400;2024-02-21T11:45:50;1.08;;;0.55;;
48006;SDS011;33771;48.180;11.400;2024-02-21T11:48:23;1.50;;;0.80;;
48006;SDS011;33771;48.180;11.400;2024-02-21T11:50:53;4.07;;;0.77;;
48006;SDS011;33771;48.180;11.400;2024-02-21T11:53:20;2.28;;;0.60;;
48006;SDS011;33771;48.180;11.400;2024-02-21T11:55:46;0.85;;;0.60;;
48006;SDS011;33771;48.180;11.400;2024-02-21T11:58:11;1.15;;;0.60;;
48006;SDS011;33771;48.180;11.400;2024-02-21T12:00:37;1.77;;;0.80;;
48006;SDS011;33771;48.180;11.400;2024-02-21T12:03:03;4.43;;;1.00;;
48006;SDS011;33771;48.180;11.400;2024-02-21T12:05:29;1.38;;;0.70;;
48006;SDS011;33771;48.180;11.400;2024-02-21T12:07:56;2.30;;;0.93;;
48006;SDS011;33771;48.180;11.400;2024-02-21T12:10:23;3.25;;;0.80;;
48006;SDS011;33771;48.180;11.400;2024-02-21T12:12:51;1.05;;;0.60;;
48006;SDS011;33771;48.180;11.400;2024-02-21T12:15:17;1.25;;;0.60;;
48006;SDS011;33771;48.180;11.400;2024-02-21T12:17:43;2.22;;;0.80;;
48006;SDS011;33771;48.180;11.400;2024-02-21T12:20:10;1.00;;;0.68;;
48006;SDS011;33771;48.180;11.400;2024-02-21T12:22:37;1.50;;;0.70;;
48006;SDS011;33771;48.180;11.400;2024-02-21T12:27:44;1.98;;;0.80;;
48006;SDS011;33771;48.180;11.400;2024-02-21T12:30:11;0.88;;;0.60;;
48006;SDS011;33771;48.180;11.400;2024-02-21T12:32:36;1.52;;;0.70;;
48006;SDS011;33771;48.180;11.400;2024-02-21T12:35:02;0.60;;;0.50;;
48006;SDS011;33771;48.180;11.400;2024-02-21T12:37:28;3.00;;;0.60;;
48006;SDS011;33771;48.180;11.400;2024-02-21T12:39:54;1.85;;;0.70;;
48006;SDS011;33771;48.180;11.400;2024-02-21T12:42:20;1.20;;;0.60;;
48006;SDS011;33771;48.180;11.400;2024-02-21T12:44:45;1.48;;;0.70;;
48006;SDS011;33771;48.180;11.400;2024-02-21T12:47:11;1.17;;;0.60;;
48006;SDS011;33771;48.180;11.400;2024-02-21T12:49:37;1.00;;;0.70;;
48006;SDS011;33771;48.180;11.400;2024-02-21T12:52:02;0.85;;;0.60;;
48006;SDS011;33771;48.180;11.400;2024-02-21T12:54:28;0.50;;;0.50;;
48006;SDS011;33771;48.180;11.400;2024-02-21T12:56:55;0.52;;;0.50;;
48006;SDS011;33771;48.180;11.400;2024-02-21T12:59:21;1.10;;;0.80;;
48006;SDS011;33771;48.180;11.400;2024-02-21T13:01:47;1.17;;;0.60;;
48006;SDS011;33771;48.180;11.400;2024-02-21T13:04:12;0.98;;;0.60;;
48006;SDS011;33771;48.180;11.400;2024-02-21T13:06:38;1.40;;;1.00;;
48006;SDS011;33771;48.180;11.400;2024-02-21T13:09:05;2.13;;;0.73;;
48006;SDS011;33771;48.180;11.400;2024-02-21T13:11:36;1.67;;;0.43;;
48006;SDS011;33771;48.180;11.400;2024-02-21T13:14:02;4.22;;;0.70;;
48006;SDS011;33771;48.180;11.400;2024-02-21T13:16:28;3.58;;;0.70;;
48006;SDS011;33771;48.180;11.400;2024-02-21T13:18:53;1.57;;;0.60;;
48006;SDS011;33771;48.180;11.400;2024-02-21T13:21:19;1.08;;;0.70;;
48006;SDS011;33771;48.180;11.400;2024-02-21T13:23:44;1.42;;;0.70;;
48006;SDS011;33771;48.180;11.400;2024-02-21T13:26:10;0.90;;;0.70;;
48006;SDS011;33771;48.180;11.400;2024-02-21T13:28:36;2.08;;;1.00;;
48006;SDS011;33771;48.180;11.400;2024-02-21T13:31:01;3.00;;;0.80;;
48006;SDS011;33771;48.180;11.400;2024-02-21T13:33:28;1.15;;;0.68;;
48006;SDS011;33771;48.180;11.400;2024-02-21T13:35:53;1.35;;;0.70;;
48006;SDS011;33771;48.180;11.400;2024-02-21T13:38:19;3.05;;;0.80;;
48006;SDS011;33771;48.180;11.400;2024-02-21T13:40:45;1.35;;;0.60;;
48006;SDS011;33771;48.180;11.400;2024-02-21T13:46:11;1.13;;;0.70;;
48006;SDS011;33771;48.180;11.400;2024-02-21T13:48:37;0.80;;;0.52;;
48006;SDS011;33771;48.180;11.400;2024-02-21T13:51:02;1.08;;;0.75;;
48006;SDS011;33771;48.180;11.400;2024-02-21T13:53:28;1.63;;;0.85;;
48006;SDS011;33771;48.180;11.400;2024-02-21T13:55:54;1.98;;;0.57;;
48006;SDS011;33771;48.180;11.400;2024-02-21T13:58:20;1.13;;;0.80;;
48006;SDS011;33771;48.180;11.400;2024-02-21T14:00:46;0.73;;;0.55;;
48006;SDS011;33771;48.180;11.400;2024-02-21T14:03:11;2.42;;;0.73;;
48006;SDS011;33771;48.180;11.400;2024-02-21T14:05:37;2.10;;;0.88;;
48006;SDS011;33771;48.180;11.400;2024-02-21T14:08:05;1.42;;;0.90;;
48006;SDS011;33771;48.180;11.400;2024-02-21T14:10:31;2.58;;;0.80;;
48006;SDS011;33771;48.180;11.400;2024-02-21T14:12:58;6.00;;;0.88;;
48006;SDS011;33771;48.180;11.400;2024-02-21T14:15:23;2.63;;;0.90;;
48006;SDS011;33771;48.180;11.400;2024-02-21T14:17:50;1.60;;;0.75;;
48006;SDS011;33771;48.180;11.400;2024-02-21T14:20:15;1.17;;;0.73;;
48006;SDS011;33771;48.180;11.400;2024-02-21T14:22:41;2.40;;;0.80;;
48006;SDS011;33771;48.180;11.400;2024-02-21T14:25:06;2.70;;;0.90;;
48006;SDS011;33771;48.180;11.400;2024-02-21T14:27:32;1.25;;;0.85;;
48006;SDS011;33771;48.180;11.400;2024-02-21T14:29:58;2.70;;;0.90;;
48006;SDS011;33771;48.180;11.400;2024-02-21T14:32:24;1.77;;;0.80;;
48006;SDS011;33771;48.180;11.400;2024-02-21T14:34:49;2.03;;;0.90;;
48006;SDS011;33771;48.180;11.400;2024-02-21T14:37:15;9.50;;;1.20;;
48006;SDS011;33771;48.180;11.400;2024-02-21T14:39:41;1.42;;;0.73;;